createdAt,value
2019-03-18T00:00:32.339Z,99872.16
2019-03-18T00:01:08.067Z,99868.61
2019-03-18T00:01:43.842Z,99869.55
2019-03-18T00:02:19.365Z,99863.52
2019-03-18T00:02:54.874Z,99864.03
2019-03-18T00:03:30.681Z,99867.80
2019-03-18T00:04:06.159Z,99868.31
2019-03-18T00:04:41.613Z,99865.72
2019-03-18T00:05:17.387Z,99853.32
2019-03-18T00:05:53.196Z,99861.78
2019-03-18T00:06:28.617Z,99858.80
2019-03-18T00:07:04.486Z,99860.09
2019-03-18T00:07:40.326Z,99865.20
2019-03-18T00:08:16.046Z,99866.06
2019-03-18T00:08:52.407Z,99861.39
2019-03-18T00:09:27.839Z,99861.72
2019-03-18T00:10:03.583Z,99858.79
2019-03-18T00:10:39.011Z,99862.96
2019-03-18T00:11:14.777Z,99868.94
2019-03-18T00:11:50.608Z,99864.67
2019-03-18T00:12:26.063Z,99866.41
2019-03-18T00:13:01.475Z,99876.61
2019-03-18T00:13:37.194Z,99870.25
2019-03-18T00:14:12.727Z,99869.06
2019-03-18T00:15:00.404Z,99869.50
2019-03-18T00:15:25.657Z,99864.28
2019-03-18T00:16:01.087Z,99874.66
2019-03-18T00:16:36.522Z,99872.98
2019-03-18T00:17:11.969Z,99881.05
2019-03-18T00:17:47.813Z,99876.33
2019-03-18T00:18:23.694Z,99866.45
2019-03-18T00:18:59.130Z,99874.90
2019-03-18T00:19:34.936Z,99878.06
2019-03-18T00:20:10.663Z,99875.00
2019-03-18T00:20:46.432Z,99880.14
2019-03-18T00:21:22.654Z,99882.77
2019-03-18T00:21:58.484Z,99888.25
2019-03-18T00:22:34.376Z,99881.90
2019-03-18T00:23:09.806Z,99880.13
2019-03-18T00:23:45.267Z,99877.17
2019-03-18T00:24:20.854Z,99880.58
2019-03-18T00:24:56.643Z,99887.40
2019-03-18T00:25:32.098Z,99884.92
2019-03-18T00:26:07.865Z,99891.73
2019-03-18T00:26:43.613Z,99888.31
2019-03-18T00:27:19.167Z,99878.95
2019-03-18T00:27:54.720Z,99883.12
2019-03-18T00:28:30.165Z,99893.78
2019-03-18T00:29:06.265Z,99889.52
2019-03-18T00:29:41.921Z,99883.11
2019-03-18T00:30:17.701Z,99893.36
2019-03-18T00:30:53.712Z,99894.52
2019-03-18T00:31:29.165Z,99898.00
2019-03-18T00:32:04.863Z,99897.98
2019-03-18T00:32:40.266Z,99895.11
2019-03-18T00:33:15.927Z,99893.87
2019-03-18T00:33:51.461Z,99891.81
2019-03-18T00:34:27.391Z,99894.80
2019-03-18T00:35:02.822Z,99900.79
2019-03-18T00:35:38.588Z,99894.82
2019-03-18T00:36:14.020Z,99899.98
2019-03-18T00:36:49.622Z,99899.91
2019-03-18T00:37:25.510Z,99909.56
2019-03-18T00:38:01.392Z,99908.28
2019-03-18T00:38:36.829Z,99905.28
2019-03-18T00:39:12.730Z,99913.45
2019-03-18T00:39:48.579Z,99912.11
2019-03-18T00:40:24.015Z,99907.42
2019-03-18T00:40:59.769Z,99904.92
2019-03-18T00:41:35.445Z,99905.67
2019-03-18T00:42:11.145Z,99911.69
2019-03-18T00:42:46.931Z,99911.55
2019-03-18T00:43:22.464Z,99906.47
2019-03-18T00:43:58.244Z,99906.12
2019-03-18T00:44:33.696Z,99906.11
2019-03-18T00:45:14.697Z,99906.02
2019-03-18T00:45:46.766Z,99906.43
2019-03-18T00:46:22.562Z,99909.49
2019-03-18T00:46:58.286Z,99910.30
2019-03-18T00:47:34.074Z,99897.57
2019-03-18T00:48:09.502Z,99906.84
2019-03-18T00:48:45.621Z,99906.00
2019-03-18T00:49:21.539Z,99907.38
2019-03-18T00:49:56.994Z,99905.69
2019-03-18T00:50:32.436Z,99911.30
2019-03-18T00:51:07.863Z,99907.81
2019-03-18T00:51:43.860Z,99908.17
2019-03-18T00:52:19.543Z,99902.70
2019-03-18T00:52:55.459Z,99906.98
2019-03-18T00:53:30.940Z,99902.20
2019-03-18T00:54:06.428Z,99904.31
2019-03-18T00:54:42.366Z,99903.53
2019-03-18T00:55:17.825Z,99911.99
2019-03-18T00:55:53.374Z,99915.47
2019-03-18T00:56:28.848Z,99909.94
2019-03-18T00:57:04.338Z,99908.55
2019-03-18T00:57:39.755Z,99911.63
2019-03-18T00:58:15.616Z,99917.19
2019-03-18T00:58:52.137Z,99910.30
2019-03-18T00:59:28.626Z,99909.92
2019-03-18T01:00:04.470Z,99915.41
2019-03-18T01:00:40.528Z,99912.42
2019-03-18T01:01:15.963Z,99908.98
2019-03-18T01:01:51.690Z,99908.23
2019-03-18T01:02:27.447Z,99912.08
2019-03-18T01:03:02.878Z,99910.37
2019-03-18T01:03:38.414Z,99912.96
2019-03-18T01:04:13.906Z,99905.77
2019-03-18T01:04:49.979Z,99919.34
2019-03-18T01:05:26.147Z,99916.80
2019-03-18T01:06:01.894Z,99911.67
2019-03-18T01:06:38.457Z,99909.55
2019-03-18T01:07:13.883Z,99912.08
2019-03-18T01:07:49.477Z,99912.60
2019-03-18T01:08:25.375Z,99918.99
2019-03-18T01:09:00.886Z,99914.73
2019-03-18T01:09:37.056Z,99918.22
2019-03-18T01:10:12.909Z,99919.34
2019-03-18T01:10:48.382Z,99920.62
2019-03-18T01:11:23.831Z,99924.97
2019-03-18T01:11:59.606Z,99912.19
2019-03-18T01:12:35.347Z,99910.55
2019-03-18T01:13:10.756Z,99912.58
2019-03-18T01:13:46.558Z,99913.44
2019-03-18T01:14:22.451Z,99911.77
2019-03-18T01:14:58.516Z,99915.59
2019-03-18T01:15:33.960Z,99913.91
2019-03-18T01:16:09.706Z,99903.82
2019-03-18T01:16:45.649Z,99905.46
2019-03-18T01:17:21.105Z,99908.80
2019-03-18T01:17:57.551Z,99915.58
2019-03-18T01:18:33.267Z,99905.86
2019-03-18T01:19:09.004Z,99905.04
2019-03-18T01:19:44.767Z,99902.47
2019-03-18T01:20:20.203Z,99902.91
2019-03-18T01:20:55.624Z,99904.19
2019-03-18T01:21:31.137Z,99897.81
2019-03-18T01:22:06.896Z,99906.30
2019-03-18T01:22:42.633Z,99903.73
2019-03-18T01:23:18.077Z,99903.82
2019-03-18T01:23:53.609Z,99908.94
2019-03-18T01:24:29.258Z,99902.08
2019-03-18T01:25:05.001Z,99896.95
2019-03-18T01:25:40.483Z,99900.00
2019-03-18T01:26:16.298Z,99901.73
2019-03-18T01:26:51.888Z,99894.94
2019-03-18T01:27:27.317Z,99897.91
2019-03-18T01:28:03.094Z,99896.59
2019-03-18T01:28:38.965Z,99894.39
2019-03-18T01:29:14.383Z,99887.23
2019-03-18T01:29:49.926Z,99893.63
2019-03-18T01:30:25.737Z,99893.22
2019-03-18T01:31:01.154Z,99893.63
2019-03-18T01:31:37.218Z,99899.16
2019-03-18T01:32:13.023Z,99901.33
2019-03-18T01:32:48.490Z,99897.54
2019-03-18T01:33:23.939Z,99889.02
2019-03-18T01:34:00.290Z,99891.83
2019-03-18T01:34:36.057Z,99891.47
2019-03-18T01:35:11.682Z,99894.92
2019-03-18T01:35:47.103Z,99897.05
2019-03-18T01:36:22.557Z,99902.17
2019-03-18T01:36:57.979Z,99897.06
2019-03-18T01:37:33.423Z,99897.06
2019-03-18T01:38:08.820Z,99898.31
2019-03-18T01:38:44.259Z,99904.72
2019-03-18T01:39:20.423Z,99905.14
2019-03-18T01:39:55.986Z,99898.76
2019-03-18T01:40:31.449Z,99904.77
2019-03-18T01:41:06.873Z,99905.56
2019-03-18T01:41:42.287Z,99903.59
2019-03-18T01:42:17.996Z,99903.92
2019-03-18T01:42:53.681Z,99907.77
2019-03-18T01:43:29.851Z,99906.49
2019-03-18T01:44:05.365Z,99907.33
2019-03-18T01:44:40.792Z,99916.70
2019-03-18T01:45:16.612Z,99913.67
2019-03-18T01:45:52.631Z,99908.61
2019-03-18T01:46:28.076Z,99913.75
2019-03-18T01:47:03.816Z,99909.55
2019-03-18T01:47:39.240Z,99911.53
2019-03-18T01:48:14.764Z,99919.28
2019-03-18T01:48:50.430Z,99916.74
2019-03-18T01:49:26.002Z,99915.04
2019-03-18T01:50:01.460Z,99910.73
2019-03-18T01:50:36.883Z,99915.45
2019-03-18T01:51:12.317Z,99918.94
2019-03-18T01:51:47.854Z,99917.64
2019-03-18T01:52:23.319Z,99919.36
2019-03-18T01:52:58.733Z,99921.13
2019-03-18T01:53:34.514Z,99927.89
2019-03-18T01:54:10.388Z,99924.87
2019-03-18T01:54:46.108Z,99919.34
2019-03-18T01:55:21.941Z,99911.70
2019-03-18T01:55:57.371Z,99920.66
2019-03-18T01:56:33.659Z,99916.05
2019-03-18T01:57:09.095Z,99919.38
2019-03-18T01:57:44.603Z,99906.27
2019-03-18T01:58:20.125Z,99910.53
2019-03-18T01:58:55.973Z,99911.02
2019-03-18T01:59:31.403Z,99906.32
2019-03-18T02:00:07.538Z,99921.17
2019-03-18T02:00:43.293Z,99917.37
2019-03-18T02:01:19.132Z,99920.37
2019-03-18T02:01:54.663Z,99917.41
2019-03-18T02:02:30.148Z,99911.45
2019-03-18T02:03:05.557Z,99915.63
2019-03-18T02:03:41.327Z,99913.55
2019-03-18T02:04:17.254Z,99917.41
2019-03-18T02:04:53.676Z,99916.54
2019-03-18T02:05:29.440Z,99911.45
2019-03-18T02:06:04.881Z,99909.31
2019-03-18T02:06:40.300Z,99908.03
2019-03-18T02:07:15.800Z,99919.55
2019-03-18T02:07:51.277Z,99908.03
2019-03-18T02:08:27.171Z,99911.45
2019-03-18T02:09:02.771Z,99904.22
2019-03-18T02:09:38.231Z,99912.73
2019-03-18T02:10:13.723Z,99905.47
2019-03-18T02:10:49.618Z,99908.91
2019-03-18T02:11:25.405Z,99905.91
2019-03-18T02:12:01.563Z,99905.50
2019-03-18T02:12:37.076Z,99906.35
2019-03-18T02:13:12.493Z,99901.24
2019-03-18T02:13:48.376Z,99913.55
2019-03-18T02:14:23.932Z,99899.53
2019-03-18T02:14:59.824Z,99902.09
2019-03-18T02:15:35.229Z,99904.27
2019-03-18T02:16:10.663Z,99901.72
2019-03-18T02:16:46.431Z,99904.23
2019-03-18T02:17:21.943Z,99907.59
2019-03-18T02:17:57.926Z,99904.64
2019-03-18T02:18:33.685Z,99911.45
2019-03-18T02:19:09.102Z,99907.63
2019-03-18T02:19:44.545Z,99902.56
2019-03-18T02:20:20.282Z,99910.17
2019-03-18T02:20:56.323Z,99908.95
2019-03-18T02:21:31.749Z,99911.93
2019-03-18T02:22:07.153Z,99908.55
2019-03-18T02:22:42.566Z,99905.16
2019-03-18T02:23:18.026Z,99905.42
2019-03-18T02:23:53.816Z,99905.42
2019-03-18T02:24:29.289Z,99914.34
2019-03-18T02:25:05.706Z,99904.13
2019-03-18T02:25:41.224Z,99903.69
2019-03-18T02:26:17.103Z,99904.20
2019-03-18T02:26:53.352Z,99910.58
2019-03-18T02:27:28.755Z,99909.33
2019-03-18T02:28:04.170Z,99908.45
2019-03-18T02:28:39.615Z,99909.25
2019-03-18T02:29:15.314Z,99913.55
2019-03-18T02:29:51.199Z,99903.37
2019-03-18T02:30:26.661Z,99910.16
2019-03-18T02:31:02.081Z,99911.84
2019-03-18T02:31:37.487Z,99904.54
2019-03-18T02:32:13.275Z,99907.59
2019-03-18T02:32:48.764Z,99909.30
2019-03-18T02:33:24.585Z,99904.97
2019-03-18T02:34:00.091Z,99904.14
2019-03-18T02:34:35.886Z,99905.03
2019-03-18T02:35:11.608Z,99898.66
2019-03-18T02:35:47.078Z,99903.72
2019-03-18T02:36:22.536Z,99914.28
2019-03-18T02:36:57.995Z,99911.37
2019-03-18T02:37:33.708Z,99916.45
2019-03-18T02:38:09.141Z,99918.16
2019-03-18T02:38:44.695Z,99909.67
2019-03-18T02:39:20.493Z,99915.20
2019-03-18T02:39:56.266Z,99916.53
2019-03-18T02:40:31.732Z,99912.27
2019-03-18T02:41:07.337Z,99923.28
2019-03-18T02:41:42.880Z,99914.36
2019-03-18T02:42:18.336Z,99922.92
2019-03-18T02:42:53.775Z,99915.63
2019-03-18T02:43:29.280Z,99926.70
2019-03-18T02:44:04.719Z,99920.36
2019-03-18T02:44:40.488Z,99916.09
2019-03-18T02:45:16.262Z,99922.91
2019-03-18T02:46:08.928Z,99920.37
2019-03-18T02:46:29.654Z,99923.77
2019-03-18T02:47:05.067Z,99921.14
2019-03-18T02:47:40.893Z,99921.98
2019-03-18T02:48:16.334Z,99922.44
2019-03-18T02:48:52.108Z,99923.38
2019-03-18T02:49:27.529Z,99929.65
2019-03-18T02:50:02.954Z,99928.38
2019-03-18T02:50:38.527Z,99928.83
2019-03-18T02:51:14.308Z,99933.14
2019-03-18T02:51:52.789Z,99931.80
2019-03-18T02:52:27.280Z,99933.08
2019-03-18T02:53:02.673Z,99931.42
2019-03-18T02:53:38.100Z,99938.17
2019-03-18T02:54:13.848Z,99934.36
2019-03-18T02:54:49.762Z,99933.50
2019-03-18T02:55:25.225Z,99929.76
2019-03-18T02:56:01.139Z,99931.09
2019-03-18T02:56:36.951Z,99930.69
2019-03-18T02:57:13.211Z,99932.80
2019-03-18T02:57:49.032Z,99935.38
2019-03-18T02:58:24.493Z,99933.59
2019-03-18T02:58:59.920Z,99932.79
2019-03-18T02:59:35.736Z,99939.19
2019-03-18T03:00:11.956Z,99934.16
2019-03-18T03:00:47.414Z,99932.87
2019-03-18T03:01:23.014Z,99929.53
2019-03-18T03:01:58.569Z,99932.89
2019-03-18T03:02:34.014Z,99935.44
2019-03-18T03:03:09.742Z,99935.88
2019-03-18T03:03:45.151Z,99933.32
2019-03-18T03:04:21.023Z,99933.32
2019-03-18T03:04:56.909Z,99935.91
2019-03-18T03:05:32.354Z,99943.11
2019-03-18T03:06:08.157Z,99936.77
2019-03-18T03:06:43.615Z,99942.73
2019-03-18T03:07:19.463Z,99940.62
2019-03-18T03:07:55.174Z,99949.14
2019-03-18T03:08:30.595Z,99941.11
2019-03-18T03:09:08.575Z,99943.22
2019-03-18T03:09:44.351Z,99947.84
2019-03-18T03:10:19.820Z,99945.30
2019-03-18T03:10:55.313Z,99944.93
2019-03-18T03:11:34.144Z,99947.07
2019-03-18T03:12:08.444Z,99952.61
2019-03-18T03:12:43.887Z,99952.55
2019-03-18T03:13:19.418Z,99938.98
2019-03-18T03:13:54.907Z,99946.23
2019-03-18T03:14:30.334Z,99947.93
2019-03-18T03:15:05.878Z,99954.23
2019-03-18T03:15:41.323Z,99935.06
2019-03-18T03:16:26.342Z,99946.15
2019-03-18T03:16:54.080Z,99959.77
2019-03-18T03:17:29.502Z,99952.05
2019-03-18T03:18:04.923Z,99953.79
2019-03-18T03:18:40.650Z,99954.23
2019-03-18T03:19:16.437Z,99953.80
2019-03-18T03:19:52.053Z,99957.57
2019-03-18T03:20:27.484Z,99952.89
2019-03-18T03:21:02.990Z,99959.77
2019-03-18T03:21:39.047Z,99956.37
2019-03-18T03:22:15.200Z,99955.94
2019-03-18T03:22:51.167Z,99957.20
2019-03-18T03:23:27.316Z,99954.66
2019-03-18T03:24:03.074Z,99960.61
2019-03-18T03:24:39.118Z,99957.64
2019-03-18T03:25:14.842Z,99961.88
2019-03-18T03:25:51.489Z,99965.70
2019-03-18T03:26:27.254Z,99956.78
2019-03-18T03:27:02.755Z,99952.97
2019-03-18T03:27:38.233Z,99958.13
2019-03-18T03:28:14.080Z,99961.45
2019-03-18T03:28:49.907Z,99958.48
2019-03-18T03:29:25.694Z,99961.47
2019-03-18T03:30:02.004Z,99968.20
2019-03-18T03:30:37.888Z,99969.86
2019-03-18T03:31:13.415Z,99969.92
2019-03-18T03:31:48.969Z,99970.39
2019-03-18T03:32:24.813Z,99972.53
2019-03-18T03:33:00.263Z,99974.22
2019-03-18T03:33:35.759Z,99970.84
2019-03-18T03:34:13.808Z,99965.73
2019-03-18T03:34:48.654Z,99969.99
2019-03-18T03:35:24.105Z,99958.50
2019-03-18T03:35:59.678Z,99955.45
2019-03-18T03:36:35.487Z,99955.93
2019-03-18T03:37:10.900Z,99966.58
2019-03-18T03:37:46.349Z,99961.06
2019-03-18T03:38:22.220Z,99957.70
2019-03-18T03:38:58.016Z,99961.83
2019-03-18T03:39:33.735Z,99961.48
2019-03-18T03:40:09.610Z,99964.88
2019-03-18T03:40:45.493Z,99961.91
2019-03-18T03:41:20.949Z,99969.98
2019-03-18T03:41:56.735Z,99964.04
2019-03-18T03:42:32.171Z,99968.27
2019-03-18T03:43:07.587Z,99974.16
2019-03-18T03:43:43.016Z,99965.22
2019-03-18T03:44:19.196Z,99969.12
2019-03-18T03:44:54.650Z,99967.41
2019-03-18T03:45:30.427Z,99964.86
2019-03-18T03:46:05.909Z,99959.40
2019-03-18T03:46:43.719Z,99963.60
2019-03-18T03:47:19.292Z,99975.94
2019-03-18T03:47:54.816Z,99970.89
2019-03-18T03:48:30.568Z,99971.24
2019-03-18T03:49:06.076Z,99974.22
2019-03-18T03:49:41.510Z,99974.61
2019-03-18T03:50:17.310Z,99970.33
2019-03-18T03:50:52.779Z,99974.59
2019-03-18T03:51:28.229Z,99976.36
2019-03-18T03:52:04.169Z,99970.83
2019-03-18T03:52:39.946Z,99981.05
2019-03-18T03:53:15.353Z,99971.20
2019-03-18T03:53:50.811Z,99977.58
2019-03-18T03:54:27.057Z,99980.13
2019-03-18T03:55:02.568Z,99973.69
2019-03-18T03:55:38.205Z,99976.66
2019-03-18T03:56:13.850Z,99974.10
2019-03-18T03:56:49.807Z,99986.02
2019-03-18T03:57:25.784Z,99984.74
2019-03-18T03:58:01.194Z,99981.83
2019-03-18T03:58:36.932Z,99983.16
2019-03-18T03:59:12.980Z,99987.80
2019-03-18T03:59:48.969Z,99985.25
2019-03-18T04:00:24.456Z,99991.56
2019-03-18T04:01:00.116Z,99990.62
2019-03-18T04:01:35.547Z,99993.25
2019-03-18T04:02:11.522Z,99984.36
2019-03-18T04:02:46.945Z,99991.56
2019-03-18T04:03:37.793Z,99991.55
2019-03-18T04:03:59.722Z,99991.95
2019-03-18T04:04:35.306Z,99987.29
2019-03-18T04:05:10.873Z,99986.84
2019-03-18T04:05:46.851Z,99990.20
2019-03-18T04:06:23.363Z,99990.75
2019-03-18T04:06:58.969Z,99996.65
2019-03-18T04:07:34.617Z,99999.16
2019-03-18T04:08:10.177Z,99994.52
2019-03-18T04:08:45.791Z,99994.11
2019-03-18T04:09:21.661Z,99999.20
2019-03-18T04:09:57.694Z,99997.38
2019-03-18T04:10:33.170Z,100006.80
2019-03-18T04:11:09.219Z,100010.20
2019-03-18T04:11:44.629Z,99998.70
2019-03-18T04:12:20.145Z,100000.84
2019-03-18T04:12:56.040Z,100002.98
2019-03-18T04:13:31.497Z,99997.92
2019-03-18T04:14:06.916Z,99999.58
2019-03-18T04:14:42.370Z,99998.34
2019-03-18T04:15:18.228Z,100006.79
2019-03-18T04:15:53.706Z,100001.67
2019-03-18T04:16:29.181Z,100005.89
2019-03-18T04:17:04.616Z,100003.81
2019-03-18T04:17:40.033Z,100005.53
2019-03-18T04:18:17.884Z,100005.94
2019-03-18T04:18:53.343Z,100008.86
2019-03-18T04:19:29.403Z,99997.80
2019-03-18T04:20:05.282Z,99996.10
2019-03-18T04:20:40.726Z,99998.56
2019-03-18T04:21:16.167Z,99994.33
2019-03-18T04:21:52.030Z,100002.87
2019-03-18T04:22:27.480Z,100004.55
2019-03-18T04:23:02.903Z,99998.22
2019-03-18T04:23:38.460Z,100000.78
2019-03-18T04:24:13.878Z,99999.06
2019-03-18T04:24:49.455Z,100004.18
2019-03-18T04:25:25.249Z,100001.96
2019-03-18T04:26:00.787Z,100003.25
2019-03-18T04:26:36.627Z,100002.83
2019-03-18T04:27:12.547Z,100005.38
2019-03-18T04:27:48.048Z,100008.36
2019-03-18T04:28:24.146Z,99999.00
2019-03-18T04:28:59.604Z,100003.61
2019-03-18T04:29:35.032Z,99997.70
2019-03-18T04:30:10.493Z,100002.64
2019-03-18T04:30:45.985Z,99997.19
2019-03-18T04:31:21.461Z,99999.77
2019-03-18T04:31:56.966Z,99997.23
2019-03-18T04:32:32.391Z,100001.95
2019-03-18T04:33:08.186Z,100000.67
2019-03-18T04:33:43.909Z,100000.98
2019-03-18T04:34:19.383Z,100003.02
2019-03-18T04:34:54.888Z,100009.97
2019-03-18T04:35:30.317Z,100001.03
2019-03-18T04:36:06.065Z,100006.58
2019-03-18T04:36:41.921Z,100012.09
2019-03-18T04:37:17.921Z,100008.30
2019-03-18T04:37:53.494Z,100007.42
2019-03-18T04:38:28.917Z,100009.11
2019-03-18T04:39:05.859Z,100003.59
2019-03-18T04:39:41.341Z,100007.78
2019-03-18T04:40:16.785Z,100006.07
2019-03-18T04:40:52.687Z,100007.33
2019-03-18T04:41:28.493Z,100007.42
2019-03-18T04:42:03.956Z,100007.36
2019-03-18T04:42:39.722Z,100010.05
2019-03-18T04:43:15.155Z,100009.56
2019-03-18T04:43:50.680Z,100011.16
2019-03-18T04:44:26.126Z,100017.55
2019-03-18T04:45:01.669Z,100009.97
2019-03-18T04:45:37.101Z,100008.22
2019-03-18T04:46:12.528Z,100011.55
2019-03-18T04:46:48.067Z,100006.75
2019-03-18T04:47:23.869Z,100005.98
2019-03-18T04:47:59.963Z,100011.88
2019-03-18T04:48:35.836Z,100019.52
2019-03-18T04:49:11.287Z,100009.31
2019-03-18T04:49:46.743Z,100018.77
2019-03-18T04:50:22.787Z,100010.58
2019-03-18T04:50:58.554Z,100007.61
2019-03-18T04:51:34.749Z,100008.11
2019-03-18T04:52:10.210Z,100003.52
2019-03-18T04:52:46.132Z,100006.09
2019-03-18T04:53:21.945Z,100004.80
2019-03-18T04:53:57.469Z,100005.23
2019-03-18T04:54:33.617Z,100009.89
2019-03-18T04:55:09.465Z,100010.74
2019-03-18T04:55:45.851Z,100003.52
2019-03-18T04:56:21.375Z,100010.27
2019-03-18T04:56:57.194Z,100015.38
2019-03-18T04:57:32.716Z,100008.11
2019-03-18T04:58:08.207Z,100000.53
2019-03-18T04:58:43.974Z,99999.33
2019-03-18T04:59:19.494Z,100000.18
2019-03-18T04:59:55.818Z,100004.80
2019-03-18T05:00:31.237Z,100005.64
2019-03-18T05:01:06.673Z,100008.99
2019-03-18T05:01:42.121Z,100002.22
2019-03-18T05:02:17.613Z,100007.34
2019-03-18T05:02:53.102Z,100005.56
2019-03-18T05:03:28.534Z,100005.21
2019-03-18T05:04:04.252Z,99999.33
2019-03-18T05:04:39.672Z,100007.67
2019-03-18T05:05:15.081Z,100000.47
2019-03-18T05:05:50.909Z,100006.86
2019-03-18T05:06:26.367Z,99999.16
2019-03-18T05:07:02.131Z,100006.36
2019-03-18T05:07:37.651Z,100003.79
2019-03-18T05:08:13.085Z,100012.27
2019-03-18T05:08:48.921Z,100017.73
2019-03-18T05:09:24.681Z,100014.45
2019-03-18T05:10:00.965Z,100007.70
2019-03-18T05:10:36.442Z,100010.15
2019-03-18T05:11:12.338Z,100016.98
2019-03-18T05:11:48.085Z,100008.52
2019-03-18T05:12:23.987Z,100010.67
2019-03-18T05:12:59.519Z,100017.39
2019-03-18T05:13:34.968Z,100014.85
2019-03-18T05:14:10.484Z,100018.61
2019-03-18T05:14:45.935Z,100018.28
2019-03-18T05:15:21.449Z,100023.30
2019-03-18T05:15:56.889Z,100018.25
2019-03-18T05:16:32.325Z,100025.44
2019-03-18T05:17:08.195Z,100028.84
2019-03-18T05:17:43.657Z,100026.34
2019-03-18T05:18:19.121Z,100029.26
2019-03-18T05:18:54.732Z,100035.55
2019-03-18T05:19:30.557Z,100031.72
2019-03-18T05:20:06.176Z,100025.84
2019-03-18T05:20:41.596Z,100024.48
2019-03-18T05:21:17.086Z,100037.24
2019-03-18T05:21:52.580Z,100031.30
2019-03-18T05:22:28.040Z,100037.76
2019-03-18T05:23:03.750Z,100033.45
2019-03-18T05:23:39.181Z,100034.45
2019-03-18T05:24:14.612Z,100036.64
2019-03-18T05:24:50.532Z,100033.19
2019-03-18T05:25:26.328Z,100036.23
2019-03-18T05:26:01.749Z,100026.86
2019-03-18T05:26:37.212Z,100037.09
2019-03-18T05:27:13.084Z,100034.45
2019-03-18T05:27:48.871Z,100036.52
2019-03-18T05:28:24.381Z,100037.92
2019-03-18T05:29:00.128Z,100035.36
2019-03-18T05:29:35.564Z,100042.03
2019-03-18T05:30:11.540Z,100039.14
2019-03-18T05:30:46.998Z,100040.00
2019-03-18T05:31:22.444Z,100041.70
2019-03-18T05:31:58.166Z,100040.93
2019-03-18T05:32:34.449Z,100044.34
2019-03-18T05:33:10.235Z,100042.64
2019-03-18T05:33:45.812Z,100049.86
2019-03-18T05:34:21.288Z,100047.22
2019-03-18T05:34:57.033Z,100053.98
2019-03-18T05:35:33.079Z,100054.83
2019-03-18T05:36:08.532Z,100057.02
2019-03-18T05:36:44.300Z,100058.75
2019-03-18T05:37:19.835Z,100057.52
2019-03-18T05:37:55.312Z,100057.91
2019-03-18T05:38:30.774Z,100059.23
2019-03-18T05:39:07.454Z,100056.26
2019-03-18T05:39:42.862Z,100063.91
2019-03-18T05:40:19.013Z,100051.56
2019-03-18T05:40:54.633Z,100060.03
2019-03-18T05:41:30.071Z,100057.89
2019-03-18T05:42:05.544Z,100061.70
2019-03-18T05:42:41.337Z,100062.58
2019-03-18T05:43:16.821Z,100059.61
2019-03-18T05:43:52.444Z,100069.41
2019-03-18T05:44:27.891Z,100071.78
2019-03-18T05:45:03.328Z,100070.16
2019-03-18T05:45:38.782Z,100077.08
2019-03-18T05:46:14.217Z,100073.22
2019-03-18T05:46:49.814Z,100065.55
2019-03-18T05:47:25.380Z,100071.97
2019-03-18T05:48:01.600Z,100076.61
2019-03-18T05:48:37.739Z,100080.47
2019-03-18T05:49:13.183Z,100078.76
2019-03-18T05:49:49.177Z,100078.69
2019-03-18T05:50:25.287Z,100084.28
2019-03-18T05:51:00.748Z,100085.16
2019-03-18T05:51:36.204Z,100087.70
2019-03-18T05:52:12.015Z,100087.34
2019-03-18T05:52:48.262Z,100088.19
2019-03-18T05:53:24.183Z,100084.36
2019-03-18T05:54:00.351Z,100088.99
2019-03-18T05:54:35.797Z,100089.42
2019-03-18T05:55:11.283Z,100089.47
2019-03-18T05:55:47.072Z,100087.78
2019-03-18T05:56:23.067Z,100086.48
2019-03-18T05:56:58.872Z,100090.27
2019-03-18T05:57:34.305Z,100096.67
2019-03-18T05:58:09.891Z,100090.33
2019-03-18T05:58:45.429Z,100094.95
2019-03-18T05:59:20.915Z,100100.08
2019-03-18T05:59:56.335Z,100091.03
2019-03-18T06:00:32.054Z,100095.23
2019-03-18T06:01:07.476Z,100094.88
2019-03-18T06:01:42.907Z,100095.75
2019-03-18T06:02:18.715Z,100093.23
2019-03-18T06:02:54.568Z,100091.97
2019-03-18T06:03:30.340Z,100098.36
2019-03-18T06:04:06.102Z,100100.12
2019-03-18T06:04:41.871Z,100096.66
2019-03-18T06:05:17.719Z,100099.27
2019-03-18T06:05:53.411Z,100092.81
2019-03-18T06:06:28.857Z,100098.36
2019-03-18T06:07:04.295Z,100096.72
2019-03-18T06:07:40.632Z,100102.69
2019-03-18T06:08:16.082Z,100102.19
2019-03-18T06:08:51.991Z,100102.18
2019-03-18T06:09:28.062Z,100107.64
2019-03-18T06:10:04.210Z,100108.50
2019-03-18T06:10:39.655Z,100108.10
2019-03-18T06:11:15.837Z,100102.95
2019-03-18T06:11:51.758Z,100102.56
2019-03-18T06:12:27.514Z,100113.20
2019-03-18T06:13:03.737Z,100101.61
2019-03-18T06:13:39.157Z,100109.36
2019-03-18T06:14:14.912Z,100104.66
2019-03-18T06:14:51.082Z,100110.20
2019-03-18T06:15:26.823Z,100114.84
2019-03-18T06:16:02.257Z,100108.42
2019-03-18T06:16:37.705Z,100103.66
2019-03-18T06:17:13.157Z,100120.30
2019-03-18T06:17:52.803Z,100116.38
2019-03-18T06:18:26.261Z,100110.34
2019-03-18T06:19:02.144Z,100118.52
2019-03-18T06:19:37.595Z,100120.12
2019-03-18T06:20:13.658Z,100110.77
2019-03-18T06:20:49.500Z,100115.52
2019-03-18T06:21:25.401Z,100117.73
2019-03-18T06:22:00.879Z,100118.09
2019-03-18T06:22:36.310Z,100115.94
2019-03-18T06:23:11.776Z,100112.97
2019-03-18T06:23:47.310Z,100115.61
2019-03-18T06:24:22.740Z,100120.73
2019-03-18T06:24:58.169Z,100122.86
2019-03-18T06:25:34.018Z,100118.25
2019-03-18T06:26:09.463Z,100129.73
2019-03-18T06:26:44.874Z,100128.75
2019-03-18T06:27:20.488Z,100127.12
2019-03-18T06:27:55.912Z,100120.78
2019-03-18T06:28:31.828Z,100120.30
2019-03-18T06:29:07.353Z,100130.16
2019-03-18T06:29:43.106Z,100124.13
2019-03-18T06:30:19.058Z,100119.09
2019-03-18T06:30:55.475Z,100125.53
2019-03-18T06:31:30.939Z,100114.13
2019-03-18T06:32:06.372Z,100123.02
2019-03-18T06:32:41.808Z,100117.45
2019-03-18T06:33:17.643Z,100124.13
2019-03-18T06:33:53.153Z,100121.63
2019-03-18T06:34:28.609Z,100117.75
2019-03-18T06:35:04.205Z,100120.73
2019-03-18T06:35:39.663Z,100124.57
2019-03-18T06:36:15.111Z,100130.53
2019-03-18T06:36:50.582Z,100128.47
2019-03-18T06:37:26.894Z,100126.77
2019-03-18T06:38:02.765Z,100128.39
2019-03-18T06:38:39.217Z,100134.38
2019-03-18T06:39:15.015Z,100127.61
2019-03-18T06:39:50.459Z,100136.05
2019-03-18T06:40:25.895Z,100135.65
2019-03-18T06:41:01.321Z,100140.33
2019-03-18T06:41:36.771Z,100140.68
2019-03-18T06:42:12.279Z,100133.01
2019-03-18T06:42:48.018Z,100128.37
2019-03-18T06:43:23.462Z,100132.92
2019-03-18T06:43:59.197Z,100136.33
2019-03-18T06:44:34.979Z,100137.62
2019-03-18T06:45:10.389Z,100134.63
2019-03-18T06:45:45.923Z,100135.72
2019-03-18T06:46:21.688Z,100131.81
2019-03-18T06:46:57.130Z,100128.41
2019-03-18T06:47:32.821Z,100133.95
2019-03-18T06:48:09.282Z,100142.02
2019-03-18T06:48:45.409Z,100137.61
2019-03-18T06:49:20.860Z,100137.62
2019-03-18T06:49:56.370Z,100136.64
2019-03-18T06:50:32.142Z,100141.00
2019-03-18T06:51:07.993Z,100143.39
2019-03-18T06:51:43.638Z,100142.95
2019-03-18T06:52:19.112Z,100137.92
2019-03-18T06:52:54.571Z,100137.77
2019-03-18T06:53:30.366Z,100136.02
2019-03-18T06:54:06.100Z,100151.83
2019-03-18T06:54:41.536Z,100146.26